Mobile, AL

4:12 AM CST on February 12, 2016 (GMT -0600)
Downtown Waterfront | | Change Station
CLOSE
Current Station
Personal Weather Station
Location: Mobile, AL
Elevation: 13 ft
Nearby Weather Stations

Elev 13 ft 30.69 °N, 88.04 °W | Updated 2 seconds ago

Partly Cloudy
Partly Cloudy
57.9 °F
Feels Like 57.9 °F
N
13.0
Wind Variable Wind from West
Gusts 22.0 mph

Today
High -- | Low -- °F
--% Chance of Precip.
Yesterday
High -- | Low -- °F
Precip. -- in
Pressure 30.18 in
Visibility 10.0 miles
Clouds Mostly Cloudy 800 ft
Dew Point 56 °F
Humidity 93%
Rainfall 0.00 in
Snow Depth Not available.
6:35 AM 5:37 PM
Waxing Crescent, 19% visible
SPECI KBFM 121009Z 26009G17KT 10SM BKN008 15/14 A3018 RMK AO2 T01500139
Pressure 30.18 in
Visibility 10.0 miles
Clouds Mostly Cloudy 800 ft
Dew Point 56 °F
Humidity 93%
Rainfall 0.00 in
Snow Depth Not available.
6:35 AM 5:37 PM
Waxing Crescent, 19% visible
SPECI KBFM 121009Z 26009G17KT 10SM BKN008 15/14 A3018 RMK AO2 T01500139

10-Day Weather Forecast

Almanac

Astronomy

Feb. 12, 2016 Rise Set
Actual Time
Civil Twilight
Nautical Twilight
Astronomical Twilight
Moon
Length of Visible Light
Length of Day
Tomorrow will be .
, % of the Moon is Illuminated

Today's Extremes

State Highs State Lows

Community

WunderPhotos

Upload Photos

1,892,287 photos uploaded!

WunderBlog® & News

Nearby

Air Quality

  Air Quality AQ Index Pollutant
Not available.

Snow Depth

Station Depth Elevation

Earthquake Activity

City Distance Mag. Time & Date
Minimum magnitude displayed is 2.5.

Coastal Water Temperatures

Place Temperature

Stations

Nearby Weather Stations

Station Location Temp. Windchill Dew Point Humidity Wind Precip. Elev Updated Type
                   

Watches & Warnings

There are currently no watches in effect.